createdAt,value
2023-01-23T00:01:34.448Z,35.17
2023-01-23T00:04:02.262Z,35.72
2023-01-23T00:06:29.832Z,34.42
2023-01-23T00:08:57.396Z,34.70
2023-01-23T00:11:28.537Z,32.75
2023-01-23T00:13:57.422Z,29.30
2023-01-23T00:16:26.913Z,33.22
2023-01-23T00:18:54.656Z,35.30
2023-01-23T00:21:25.491Z,30.58
2023-01-23T00:23:55.219Z,34.22
2023-01-23T00:26:25.981Z,30.90
2023-01-23T00:28:54.284Z,36.05
2023-01-23T00:31:30.445Z,34.13
2023-01-23T00:34:01.307Z,31.20
2023-01-23T00:36:37.713Z,33.85
2023-01-23T00:39:17.436Z,31.20
2023-01-23T00:41:47.173Z,28.17
2023-01-23T00:44:15.033Z,34.15
2023-01-23T00:46:42.695Z,29.80
2023-01-23T00:49:09.780Z,27.20
2023-01-23T00:51:36.651Z,32.22
2023-01-23T00:54:03.997Z,33.92
2023-01-23T00:56:31.479Z,33.78
2023-01-23T00:58:58.455Z,32.20
2023-01-23T01:01:26.050Z,30.08
2023-01-23T01:03:53.503Z,32.38
2023-01-23T01:06:20.721Z,31.67
2023-01-23T01:08:48.405Z,29.83
2023-01-23T01:11:16.809Z,33.05
2023-01-23T01:13:44.540Z,30.85
2023-01-23T01:16:12.107Z,31.45
2023-01-23T01:18:39.216Z,30.85
2023-01-23T01:21:12.293Z,34.05
2023-01-23T01:23:40.299Z,31.38
2023-01-23T01:26:08.392Z,33.08
2023-01-23T01:28:38.150Z,34.88
2023-01-23T01:31:13.508Z,30.23
2023-01-23T01:33:42.547Z,31.23
2023-01-23T01:36:16.188Z,30.50
2023-01-23T01:38:45.966Z,30.50
2023-01-23T01:41:14.471Z,31.27
2023-01-23T01:43:42.568Z,32.55
2023-01-23T01:46:33.148Z,30.38
2023-01-23T01:49:15.666Z,27.65
2023-01-23T01:51:53.126Z,27.00
2023-01-23T01:54:31.895Z,30.77
2023-01-23T01:57:08.099Z,29.48
2023-01-23T01:59:51.303Z,31.30
2023-01-23T02:02:34.347Z,27.55
2023-01-23T02:05:12.841Z,27.73
2023-01-23T02:08:13.212Z,28.73
2023-01-23T02:10:41.160Z,31.08
2023-01-23T02:13:32.414Z,28.98
2023-01-23T02:16:03.817Z,30.40
2023-01-23T02:18:33.894Z,32.20
2023-01-23T02:21:08.121Z,31.15
2023-01-23T02:24:29.341Z,26.85
2023-01-23T02:26:57.163Z,31.08
2023-01-23T02:29:26.160Z,25.42
2023-01-23T02:31:56.335Z,30.63
2023-01-23T02:34:26.050Z,24.67
2023-01-23T02:36:57.629Z,26.10
2023-01-23T02:39:24.968Z,29.88
2023-01-23T02:41:56.070Z,26.90
2023-01-23T02:44:32.875Z,28.55
2023-01-23T02:47:11.568Z,26.20
2023-01-23T02:49:40.403Z,29.77
2023-01-23T02:52:09.875Z,30.70
2023-01-23T02:54:37.364Z,24.63
2023-01-23T02:57:04.451Z,25.45
2023-01-23T02:59:49.906Z,29.10
2023-01-23T03:02:17.888Z,27.48
2023-01-23T03:04:44.884Z,25.45
2023-01-23T03:07:11.795Z,28.38
2023-01-23T03:09:39.544Z,27.92
2023-01-23T03:12:09.051Z,29.23
2023-01-23T03:14:36.246Z,30.60
2023-01-23T03:17:03.115Z,32.28
2023-01-23T03:19:34.027Z,29.10
2023-01-23T03:22:01.082Z,30.17
2023-01-23T03:24:28.120Z,29.13
2023-01-23T03:26:55.096Z,27.60
2023-01-23T03:29:45.446Z,29.08
2023-01-23T03:32:16.450Z,29.38
2023-01-23T03:34:44.797Z,27.77
2023-01-23T03:37:13.562Z,30.08
2023-01-23T03:40:01.890Z,29.55
2023-01-23T03:42:29.969Z,33.45
2023-01-23T03:44:58.226Z,28.92
2023-01-23T03:47:29.061Z,31.40
2023-01-23T03:49:56.186Z,32.65
2023-01-23T03:52:24.369Z,28.70
2023-01-23T03:54:52.008Z,23.98
2023-01-23T03:57:19.477Z,26.75
2023-01-23T04:00:06.217Z,26.92
2023-01-23T04:02:46.370Z,28.95
2023-01-23T04:05:14.847Z,30.60
2023-01-23T04:07:41.751Z,28.55
2023-01-23T04:10:12.100Z,25.88
2023-01-23T04:12:43.416Z,31.63
2023-01-23T04:15:11.939Z,30.02
2023-01-23T04:17:42.124Z,30.45
2023-01-23T04:20:11.010Z,33.03
2023-01-23T04:22:38.304Z,28.20
2023-01-23T04:25:07.153Z,33.05
2023-01-23T04:27:34.098Z,33.05
2023-01-23T04:30:01.753Z,30.20
2023-01-23T04:32:28.799Z,28.52
2023-01-23T04:34:55.697Z,30.63
2023-01-23T04:37:22.609Z,30.98
2023-01-23T04:39:50.507Z,28.73
2023-01-23T04:42:19.027Z,30.30
2023-01-23T04:45:12.196Z,31.45
2023-01-23T04:48:13.634Z,25.75
2023-01-23T04:50:40.547Z,32.65
2023-01-23T04:53:07.568Z,34.17
2023-01-23T04:55:34.679Z,36.17
2023-01-23T04:58:04.929Z,34.00
2023-01-23T05:00:31.985Z,33.70
2023-01-23T05:03:01.164Z,30.60
2023-01-23T05:05:28.450Z,31.98
2023-01-23T05:07:59.406Z,27.48
2023-01-23T05:10:26.418Z,30.88
2023-01-23T05:12:55.898Z,28.63
2023-01-23T05:15:23.236Z,29.73
2023-01-23T05:17:51.383Z,31.67
2023-01-23T05:20:18.782Z,30.08
2023-01-23T05:22:56.545Z,33.33
2023-01-23T05:25:37.518Z,29.15
2023-01-23T05:28:04.636Z,32.55
2023-01-23T05:30:32.458Z,33.38
2023-01-23T05:33:15.295Z,38.65
2023-01-23T05:35:42.209Z,36.42
2023-01-23T05:38:12.576Z,31.60
2023-01-23T05:40:39.854Z,33.63
2023-01-23T05:43:07.088Z,31.35
2023-01-23T05:46:01.572Z,33.78
2023-01-23T05:48:38.414Z,32.35
2023-01-23T05:51:09.912Z,33.60
2023-01-23T05:53:36.985Z,31.90
2023-01-23T05:56:09.126Z,30.42
2023-01-23T05:58:44.389Z,35.00
2023-01-23T06:01:37.295Z,31.67
2023-01-23T06:04:36.598Z,31.63
2023-01-23T06:07:20.645Z,36.75
2023-01-23T06:09:51.878Z,35.95
2023-01-23T06:12:19.039Z,39.45
2023-01-23T06:14:48.122Z,41.17
2023-01-23T06:17:15.702Z,38.10
2023-01-23T06:19:43.087Z,45.38
2023-01-23T06:22:10.769Z,42.95
2023-01-23T06:24:55.750Z,43.83
2023-01-23T06:27:22.748Z,45.53
2023-01-23T06:29:51.219Z,45.35
2023-01-23T06:32:18.165Z,44.00
2023-01-23T06:34:45.492Z,44.30
2023-01-23T06:37:12.550Z,44.30
2023-01-23T06:39:42.907Z,50.90
2023-01-23T06:42:10.857Z,46.97
2023-01-23T06:44:43.281Z,44.00
2023-01-23T06:47:11.388Z,47.53
2023-01-23T06:49:39.390Z,43.95
2023-01-23T06:52:23.423Z,46.63
2023-01-23T06:54:53.307Z,47.30
2023-01-23T06:57:21.348Z,43.03
2023-01-23T06:59:53.365Z,47.42
2023-01-23T07:02:24.331Z,53.65
2023-01-23T07:04:52.166Z,50.03
2023-01-23T07:07:21.011Z,45.13
2023-01-23T07:09:49.997Z,45.53
2023-01-23T07:12:23.276Z,43.58
2023-01-23T07:14:50.269Z,46.10
2023-01-23T07:17:22.765Z,48.45
2023-01-23T07:19:51.351Z,45.97
2023-01-23T07:22:22.256Z,43.45
2023-01-23T07:24:49.224Z,46.50
2023-01-23T07:27:16.914Z,42.75
2023-01-23T07:30:05.867Z,50.92
2023-01-23T07:32:32.789Z,46.40
2023-01-23T07:34:59.679Z,49.22
2023-01-23T07:37:26.553Z,52.85
2023-01-23T07:39:53.663Z,47.13
2023-01-23T07:42:20.886Z,43.40
2023-01-23T07:44:47.917Z,41.33
2023-01-23T07:47:14.914Z,48.08
2023-01-23T07:49:41.857Z,45.00
2023-01-23T07:52:09.290Z,43.05
2023-01-23T07:54:36.287Z,45.78
2023-01-23T07:57:03.230Z,41.85
2023-01-23T07:59:30.227Z,38.72
2023-01-23T08:01:57.160Z,37.42
2023-01-23T08:04:24.363Z,40.30
2023-01-23T08:06:51.354Z,40.47
2023-01-23T08:09:18.460Z,43.58
2023-01-23T08:11:45.400Z,44.72
2023-01-23T08:14:12.419Z,46.15
2023-01-23T08:16:41.189Z,48.38
2023-01-23T08:19:12.095Z,43.97
2023-01-23T08:21:39.536Z,35.70
2023-01-23T08:24:07.039Z,34.90
2023-01-23T08:26:34.597Z,32.35
2023-01-23T08:29:01.833Z,37.20
2023-01-23T08:31:30.225Z,39.40
2023-01-23T08:33:57.353Z,34.30
2023-01-23T08:36:24.304Z,33.75
2023-01-23T08:38:51.252Z,35.53
2023-01-23T08:41:18.109Z,40.65
2023-01-23T08:43:45.166Z,36.33
2023-01-23T08:46:12.696Z,39.20
2023-01-23T08:48:41.483Z,40.75
2023-01-23T08:51:18.363Z,38.17
2023-01-23T08:53:45.602Z,32.88
2023-01-23T08:56:20.854Z,35.80
2023-01-23T09:01:26.570Z,38.58
2023-01-23T09:03:53.988Z,43.13
2023-01-23T09:06:23.240Z,37.90
2023-01-23T09:08:53.445Z,43.83
2023-01-23T09:13:54.599Z,42.67
2023-01-23T09:16:22.433Z,39.08
2023-01-23T09:18:49.606Z,40.28
2023-01-23T09:21:22.643Z,38.17
2023-01-23T09:23:49.632Z,40.60
2023-01-23T09:26:19.674Z,42.60
2023-01-23T09:28:47.041Z,41.53
2023-01-23T09:31:14.775Z,42.58
2023-01-23T09:33:42.322Z,43.95
2023-01-23T09:36:10.336Z,42.92
2023-01-23T09:38:37.488Z,47.90
2023-01-23T09:41:26.649Z,41.63
2023-01-23T09:44:10.829Z,42.72
2023-01-23T09:46:54.781Z,39.67
2023-01-23T09:49:38.392Z,43.08
2023-01-23T09:52:23.718Z,38.75
2023-01-23T09:55:01.366Z,43.40
2023-01-23T09:57:42.347Z,44.55
2023-01-23T10:00:27.520Z,42.70
2023-01-23T10:02:56.725Z,36.85
2023-01-23T10:05:42.307Z,48.95
2023-01-23T10:08:48.114Z,42.08
2023-01-23T10:11:59.644Z,38.30
2023-01-23T10:15:01.664Z,38.22
2023-01-23T10:18:10.776Z,47.30
2023-01-23T10:21:03.668Z,40.92
2023-01-23T10:23:47.022Z,40.90
2023-01-23T10:26:32.775Z,41.25
2023-01-23T10:29:27.203Z,43.70
2023-01-23T10:32:01.489Z,39.58
2023-01-23T10:34:56.958Z,43.90
2023-01-23T10:37:50.775Z,35.85
2023-01-23T10:40:42.450Z,36.83
2023-01-23T10:43:21.544Z,39.30
2023-01-23T10:45:50.727Z,35.88
2023-01-23T10:48:51.396Z,35.58
2023-01-23T10:51:48.841Z,38.97
2023-01-23T10:54:31.181Z,37.05
2023-01-23T10:57:28.369Z,37.22
2023-01-23T11:00:47.781Z,35.38
2023-01-23T11:03:21.034Z,34.75
2023-01-23T11:06:06.971Z,33.45
2023-01-23T11:09:00.245Z,36.85
2023-01-23T11:11:33.296Z,35.85
2023-01-23T11:14:16.650Z,32.95
2023-01-23T11:16:44.243Z,34.83
2023-01-23T11:19:22.163Z,36.03
2023-01-23T11:25:45.275Z,34.70
2023-01-23T11:29:27.213Z,33.13
2023-01-23T11:32:32.420Z,36.15
2023-01-23T11:36:18.847Z,37.00
2023-01-23T11:38:53.661Z,35.75
2023-01-23T11:41:30.594Z,36.45
2023-01-23T11:43:58.581Z,36.03
2023-01-23T11:47:42.732Z,38.85
2023-01-23T11:50:24.153Z,38.17
2023-01-23T11:53:42.443Z,38.35
2023-01-23T11:57:07.127Z,40.40
2023-01-23T12:00:34.122Z,39.75
2023-01-23T12:03:40.247Z,46.28
2023-01-23T12:06:52.985Z,39.17
2023-01-23T12:09:23.079Z,34.28
2023-01-23T12:12:24.068Z,41.92
2023-01-23T12:15:48.349Z,41.15
2023-01-23T12:19:09.561Z,42.22
2023-01-23T12:22:17.409Z,36.60
2023-01-23T12:25:44.313Z,38.90
2023-01-23T12:28:48.467Z,41.00
2023-01-23T12:32:09.162Z,44.13
2023-01-23T12:35:10.109Z,38.72
2023-01-23T12:38:05.038Z,39.65
2023-01-23T12:41:19.247Z,42.88
2023-01-23T12:44:12.541Z,41.22
2023-01-23T12:46:55.807Z,43.83
2023-01-23T12:50:40.037Z,41.13
2023-01-23T12:53:18.317Z,43.03
2023-01-23T12:56:19.852Z,44.05
2023-01-23T12:59:23.563Z,43.92
2023-01-23T13:02:06.733Z,49.90
2023-01-23T13:09:12.470Z,45.13
2023-01-23T13:12:01.730Z,47.72
2023-01-23T13:14:58.057Z,44.55
2023-01-23T13:18:23.169Z,45.13
2023-01-23T13:22:16.100Z,43.55
2023-01-23T13:25:26.801Z,48.53
2023-01-23T13:28:47.971Z,47.13
2023-01-23T13:31:42.160Z,49.83
2023-01-23T13:34:19.790Z,44.15
2023-01-23T13:36:55.122Z,53.20
2023-01-23T13:39:32.492Z,45.22
2023-01-23T13:42:27.817Z,50.28
2023-01-23T13:45:28.878Z,51.40
2023-01-23T14:26:18.065Z,68.25
2023-01-23T14:29:38.531Z,70.13
2023-01-23T14:32:05.768Z,73.25
2023-01-23T14:34:40.111Z,75.75
2023-01-23T14:37:12.319Z,75.53
2023-01-23T14:39:40.925Z,69.05
2023-01-23T14:42:30.384Z,72.45
2023-01-23T14:45:02.011Z,68.57
2023-01-23T14:47:37.934Z,71.85
2023-01-23T14:50:36.083Z,71.45
2023-01-23T14:53:22.487Z,68.70
2023-01-23T14:55:50.622Z,75.65
2023-01-23T14:58:25.979Z,66.70
2023-01-23T15:00:54.509Z,78.78
2023-01-23T15:03:54.651Z,67.80
2023-01-23T15:06:23.330Z,91.18
2023-01-23T15:08:53.676Z,97.57
2023-01-23T15:11:29.083Z,127.78
2023-01-23T15:14:02.260Z,81.68
2023-01-23T15:16:38.362Z,83.95
2023-01-23T15:19:22.557Z,74.05
2023-01-23T15:21:50.362Z,79.55
2023-01-23T15:24:27.256Z,75.85
2023-01-23T15:26:58.594Z,75.25
2023-01-23T15:29:27.231Z,79.80
2023-01-23T15:31:57.628Z,77.78
2023-01-23T15:34:32.679Z,81.80
2023-01-23T15:37:09.668Z,79.20
2023-01-23T15:39:59.690Z,85.70
2023-01-23T15:42:34.175Z,78.57
2023-01-23T15:45:02.530Z,79.70
2023-01-23T15:47:31.462Z,83.50
2023-01-23T15:50:01.531Z,84.22
2023-01-23T15:52:53.470Z,78.18
2023-01-23T15:55:25.525Z,77.82
2023-01-23T15:57:54.391Z,76.70
2023-01-23T16:00:25.957Z,74.40
2023-01-23T16:02:58.252Z,72.13
2023-01-23T16:05:29.981Z,72.35
2023-01-23T16:08:01.106Z,75.82
2023-01-23T16:10:37.456Z,73.30
2023-01-23T16:13:05.298Z,71.07
2023-01-23T16:15:35.074Z,74.35
2023-01-23T16:18:06.193Z,66.57
2023-01-23T16:20:42.017Z,74.60
2023-01-23T16:23:31.257Z,69.05
2023-01-23T16:26:02.937Z,70.97
2023-01-23T16:28:30.775Z,67.20
2023-01-23T16:30:57.659Z,72.70
2023-01-23T16:33:24.796Z,65.68
2023-01-23T16:35:51.946Z,62.70
2023-01-23T16:38:33.757Z,79.68
2023-01-23T16:41:01.724Z,70.25
2023-01-23T16:43:28.762Z,69.70
2023-01-23T16:45:56.886Z,72.28
2023-01-23T16:48:27.650Z,66.25
2023-01-23T16:51:17.691Z,72.50
2023-01-23T16:53:53.887Z,63.55
2023-01-23T16:56:34.952Z,64.93
2023-01-23T16:59:08.360Z,68.78
2023-01-23T17:01:40.289Z,62.20
2023-01-23T17:04:07.502Z,67.47
2023-01-23T17:06:34.437Z,59.90
2023-01-23T17:09:01.776Z,62.42
2023-01-23T17:11:40.247Z,67.53
2023-01-23T17:14:16.359Z,62.05
2023-01-23T17:16:44.753Z,61.40
2023-01-23T17:19:34.895Z,57.00
2023-01-23T17:22:05.848Z,62.38
2023-01-23T17:24:32.911Z,62.22
2023-01-23T17:26:59.778Z,60.22
2023-01-23T17:29:27.477Z,60.85
2023-01-23T17:31:54.615Z,60.25
2023-01-23T17:34:29.274Z,57.72
2023-01-23T17:36:57.103Z,61.58
2023-01-23T17:39:24.057Z,59.13
2023-01-23T17:41:51.349Z,59.20
2023-01-23T17:44:18.337Z,61.08
2023-01-23T17:46:46.331Z,60.70
2023-01-23T17:49:32.746Z,53.85
2023-01-23T17:52:01.728Z,61.83
2023-01-23T17:54:29.601Z,52.95
2023-01-23T17:56:56.598Z,63.85
2023-01-23T17:59:23.530Z,59.90
2023-01-23T18:01:50.815Z,59.08
2023-01-23T18:04:20.947Z,57.83
2023-01-23T18:06:49.961Z,60.88
2023-01-23T18:09:17.385Z,57.45
2023-01-23T18:11:52.519Z,54.67
2023-01-23T18:15:06.293Z,53.83
2023-01-23T18:17:45.907Z,62.45
2023-01-23T18:20:22.610Z,54.42
2023-01-23T18:22:50.207Z,55.75
2023-01-23T18:25:19.362Z,59.47
2023-01-23T18:27:52.752Z,60.13
2023-01-23T18:30:35.511Z,55.58
2023-01-23T18:33:43.337Z,55.42
2023-01-23T18:36:48.312Z,52.88
2023-01-23T18:39:39.929Z,55.45
2023-01-23T18:42:27.633Z,57.40
2023-01-23T18:45:04.760Z,53.63
2023-01-23T18:47:32.131Z,62.45
2023-01-23T18:49:59.559Z,53.13
2023-01-23T18:52:44.957Z,58.00
2023-01-23T18:55:32.655Z,52.42
2023-01-23T18:58:42.932Z,64.45
2023-01-23T19:01:34.031Z,59.65
2023-01-23T19:04:01.578Z,59.10
2023-01-23T19:06:33.333Z,69.60
2023-01-23T19:09:01.313Z,65.03
2023-01-23T19:11:52.443Z,62.20
2023-01-23T19:15:09.821Z,56.28
2023-01-23T19:18:09.169Z,61.97
2023-01-23T19:21:03.188Z,66.97
2023-01-23T19:23:45.190Z,62.25
2023-01-23T19:26:16.568Z,59.95
2023-01-23T19:28:44.067Z,66.97
2023-01-23T19:31:24.647Z,67.53
2023-01-23T19:33:52.635Z,64.95
2023-01-23T19:36:20.979Z,65.68
2023-01-23T19:38:49.691Z,65.15
2023-01-23T19:41:25.233Z,67.10
2023-01-23T19:43:56.786Z,73.55
2023-01-23T19:46:29.916Z,62.15
2023-01-23T19:48:57.930Z,61.63
2023-01-23T19:51:26.913Z,63.92
2023-01-23T19:53:54.868Z,63.60
2023-01-23T19:56:22.621Z,63.88
2023-01-23T19:58:50.117Z,66.35
2023-01-23T20:01:45.809Z,67.60
2023-01-23T20:06:45.820Z,76.35
2023-01-23T20:09:14.838Z,70.38
2023-01-23T20:11:43.267Z,76.38
2023-01-23T20:14:11.501Z,64.38
2023-01-23T20:16:42.897Z,66.22
2023-01-23T20:19:14.976Z,76.47
2023-01-23T20:21:42.716Z,65.90
2023-01-23T20:24:10.297Z,72.68
2023-01-23T20:26:37.975Z,69.50
2023-01-23T20:29:07.049Z,71.43
2023-01-23T20:31:35.755Z,68.25
2023-01-23T20:34:03.120Z,72.80
2023-01-23T20:36:30.318Z,79.28
2023-01-23T20:38:57.529Z,76.63
2023-01-23T20:41:24.469Z,74.00
2023-01-23T20:43:51.738Z,77.90
2023-01-23T20:46:21.587Z,72.57
2023-01-23T20:48:48.527Z,76.40
2023-01-23T20:51:17.021Z,77.50
2023-01-23T20:53:45.618Z,72.10
2023-01-23T20:56:19.808Z,75.97
2023-01-23T20:59:08.731Z,75.80
2023-01-23T21:01:59.303Z,73.07
2023-01-23T21:04:35.173Z,75.80
2023-01-23T21:07:03.704Z,74.82
2023-01-23T21:09:30.634Z,69.95
2023-01-23T21:11:57.704Z,78.57
2023-01-23T21:14:24.979Z,76.93
2023-01-23T21:16:51.906Z,70.95
2023-01-23T21:19:19.293Z,79.90
2023-01-23T21:21:47.053Z,81.40
2023-01-23T21:24:14.260Z,75.03
2023-01-23T21:26:41.722Z,75.82
2023-01-23T21:29:09.576Z,85.32
2023-01-23T21:31:39.354Z,86.90
2023-01-23T21:34:10.757Z,75.88
2023-01-23T21:36:38.752Z,78.55
2023-01-23T21:39:07.531Z,82.32
2023-01-23T21:41:35.612Z,80.30
2023-01-23T21:44:02.514Z,78.90
2023-01-23T21:46:29.493Z,79.45
2023-01-23T21:48:56.366Z,84.97
2023-01-23T21:51:25.392Z,83.20
2023-01-23T21:53:52.300Z,78.22
2023-01-23T21:56:22.892Z,80.45
2023-01-23T21:58:50.260Z,87.15
2023-01-23T22:01:32.170Z,76.65
2023-01-23T22:04:12.008Z,80.13
2023-01-23T22:06:42.566Z,82.18
2023-01-23T22:09:14.886Z,84.50
2023-01-23T22:11:41.909Z,86.97
2023-01-23T22:14:08.727Z,83.10
2023-01-23T22:16:47.996Z,78.43
2023-01-23T22:19:20.997Z,83.55
2023-01-23T22:21:49.145Z,77.95
2023-01-23T22:24:16.123Z,82.00
2023-01-23T22:26:43.354Z,82.15
2023-01-23T22:29:13.129Z,83.90
2023-01-23T22:31:40.143Z,83.78
2023-01-23T22:34:07.140Z,85.85
2023-01-23T22:36:34.007Z,77.85
2023-01-23T22:39:00.928Z,81.82
2023-01-23T22:41:28.535Z,86.45
2023-01-23T22:43:59.166Z,89.18
2023-01-23T22:46:26.455Z,82.97
2023-01-23T22:48:53.384Z,87.03
2023-01-23T22:51:26.982Z,75.35
2023-01-23T22:53:55.593Z,85.32
2023-01-23T22:56:24.661Z,88.75
2023-01-23T22:58:54.645Z,85.30
2023-01-23T23:01:23.577Z,88.40
2023-01-23T23:03:51.274Z,82.57
2023-01-23T23:06:19.751Z,90.28
2023-01-23T23:08:48.141Z,84.85
2023-01-23T23:11:28.179Z,87.45
2023-01-23T23:13:56.880Z,84.00
2023-01-23T23:16:29.420Z,89.32
2023-01-23T23:19:00.514Z,82.30
2023-01-23T23:21:31.902Z,83.15
2023-01-23T23:24:00.645Z,85.75
2023-01-23T23:26:31.262Z,85.68
2023-01-23T23:29:00.385Z,87.25
2023-01-23T23:31:28.411Z,84.22
2023-01-23T23:33:55.666Z,85.63
2023-01-23T23:36:23.041Z,87.90
2023-01-23T23:38:50.037Z,87.65
2023-01-23T23:41:18.139Z,80.93
2023-01-23T23:43:45.598Z,90.40
2023-01-23T23:46:14.216Z,82.63
2023-01-23T23:48:46.175Z,95.95
2023-01-23T23:51:15.977Z,86.90
2023-01-23T23:53:43.066Z,93.68
2023-01-23T23:56:18.495Z,83.82
2023-01-23T23:58:45.410Z,84.50
